sensor_id;sensor_type;location;lat;lon;timestamp;P1;durP1;ratioP1;P2;durP2;ratioP2
56599;SDS011;51832;48.152;11.530;2024-02-23T00:03:18;0.20;;;0.20;;
56599;SDS011;51832;48.152;11.530;2024-02-23T00:08:19;0.30;;;0.30;;
56599;SDS011;51832;48.152;11.530;2024-02-23T00:13:19;0.35;;;0.30;;
56599;SDS011;51832;48.152;11.530;2024-02-23T00:18:19;0.20;;;0.20;;
56599;SDS011;51832;48.152;11.530;2024-02-23T00:23:20;0.30;;;0.30;;
56599;SDS011;51832;48.152;11.530;2024-02-23T00:28:20;0.20;;;0.20;;
56599;SDS011;51832;48.152;11.530;2024-02-23T00:33:21;0.55;;;0.20;;
56599;SDS011;51832;48.152;11.530;2024-02-23T00:38:21;0.20;;;0.20;;
56599;SDS011;51832;48.152;11.530;2024-02-23T00:43:22;0.20;;;0.20;;
56599;SDS011;51832;48.152;11.530;2024-02-23T00:48:23;0.40;;;0.40;;
56599;SDS011;51832;48.152;11.530;2024-02-23T00:53:23;0.65;;;0.20;;
56599;SDS011;51832;48.152;11.530;2024-02-23T00:58:24;0.32;;;0.30;;
56599;SDS011;51832;48.152;11.530;2024-02-23T01:03:24;0.45;;;0.20;;
56599;SDS011;51832;48.152;11.530;2024-02-23T01:08:25;0.25;;;0.20;;
56599;SDS011;51832;48.152;11.530;2024-02-23T01:13:25;1.17;;;0.40;;
56599;SDS011;51832;48.152;11.530;2024-02-23T01:18:26;0.45;;;0.10;;
56599;SDS011;51832;48.152;11.530;2024-02-23T01:23:26;1.08;;;0.20;;
56599;SDS011;51832;48.152;11.530;2024-02-23T01:28:27;1.52;;;0.28;;
56599;SDS011;51832;48.152;11.530;2024-02-23T01:33:27;0.35;;;0.30;;
56599;SDS011;51832;48.152;11.530;2024-02-23T01:38:28;0.10;;;0.10;;
56599;SDS011;51832;48.152;11.530;2024-02-23T01:43:32;1.00;;;0.20;;
56599;SDS011;51832;48.152;11.530;2024-02-23T01:48:33;0.10;;;0.10;;
56599;SDS011;51832;48.152;11.530;2024-02-23T01:53:33;0.30;;;0.30;;
56599;SDS011;51832;48.152;11.530;2024-02-23T01:58:34;1.27;;;0.20;;
56599;SDS011;51832;48.152;11.530;2024-02-23T02:03:39;0.10;;;0.10;;
56599;SDS011;51832;48.152;11.530;2024-02-23T02:13:41;0.10;;;0.10;;
56599;SDS011;51832;48.152;11.530;2024-02-23T02:18:41;0.10;;;0.10;;
56599;SDS011;51832;48.152;11.530;2024-02-23T02:23:42;0.10;;;0.10;;
56599;SDS011;51832;48.152;11.530;2024-02-23T02:28:42;0.30;;;0.30;;
56599;SDS011;51832;48.152;11.530;2024-02-23T02:33:42;0.15;;;0.15;;
56599;SDS011;51832;48.152;11.530;2024-02-23T02:38:43;0.15;;;0.15;;
56599;SDS011;51832;48.152;11.530;2024-02-23T02:43:44;0.30;;;0.20;;
56599;SDS011;51832;48.152;11.530;2024-02-23T02:48:44;0.17;;;0.17;;
56599;SDS011;51832;48.152;11.530;2024-02-23T02:53:45;0.10;;;0.10;;
56599;SDS011;51832;48.152;11.530;2024-02-23T02:58:45;0.25;;;0.20;;
56599;SDS011;51832;48.152;11.530;2024-02-23T03:03:46;0.10;;;0.10;;
56599;SDS011;51832;48.152;11.530;2024-02-23T03:08:47;0.20;;;0.20;;
56599;SDS011;51832;48.152;11.530;2024-02-23T03:13:47;0.10;;;0.10;;
56599;SDS011;51832;48.152;11.530;2024-02-23T03:18:48;0.20;;;0.20;;
56599;SDS011;51832;48.152;11.530;2024-02-23T03:23:49;1.45;;;0.20;;
56599;SDS011;51832;48.152;11.530;2024-02-23T03:28:49;0.20;;;0.20;;
56599;SDS011;51832;48.152;11.530;2024-02-23T03:33:50;0.20;;;0.20;;
56599;SDS011;51832;48.152;11.530;2024-02-23T03:38:50;0.20;;;0.20;;
56599;SDS011;51832;48.152;11.530;2024-02-23T03:43:50;0.25;;;0.25;;
56599;SDS011;51832;48.152;11.530;2024-02-23T03:48:51;0.22;;;0.22;;
56599;SDS011;51832;48.152;11.530;2024-02-23T03:53:52;0.32;;;0.20;;
56599;SDS011;51832;48.152;11.530;2024-02-23T03:58:53;0.20;;;0.20;;
56599;SDS011;51832;48.152;11.530;2024-02-23T04:03:53;0.40;;;0.40;;
56599;SDS011;51832;48.152;11.530;2024-02-23T04:08:54;0.75;;;0.20;;
56599;SDS011;51832;48.152;11.530;2024-02-23T04:13:54;0.52;;;0.40;;
56599;SDS011;51832;48.152;11.530;2024-02-23T04:18:55;0.30;;;0.30;;
56599;SDS011;51832;48.152;11.530;2024-02-23T04:23:56;0.55;;;0.22;;
56599;SDS011;51832;48.152;11.530;2024-02-23T04:28:56;0.70;;;0.30;;
56599;SDS011;51832;48.152;11.530;2024-02-23T04:33:57;0.90;;;0.20;;
56599;SDS011;51832;48.152;11.530;2024-02-23T04:38:58;0.20;;;0.20;;
56599;SDS011;51832;48.152;11.530;2024-02-23T04:43:58;0.25;;;0.20;;
56599;SDS011;51832;48.152;11.530;2024-02-23T04:49:00;0.45;;;0.20;;
56599;SDS011;51832;48.152;11.530;2024-02-23T04:54:01;0.93;;;0.30;;
56599;SDS011;51832;48.152;11.530;2024-02-23T04:59:03;0.98;;;0.50;;
56599;SDS011;51832;48.152;11.530;2024-02-23T05:04:03;0.77;;;0.40;;
56599;SDS011;51832;48.152;11.530;2024-02-23T05:09:04;0.63;;;0.30;;
56599;SDS011;51832;48.152;11.530;2024-02-23T05:14:06;1.35;;;0.40;;
56599;SDS011;51832;48.152;11.530;2024-02-23T05:19:06;0.30;;;0.30;;
56599;SDS011;51832;48.152;11.530;2024-02-23T05:24:07;0.47;;;0.47;;
56599;SDS011;51832;48.152;11.530;2024-02-23T05:29:07;0.35;;;0.30;;
56599;SDS011;51832;48.152;11.530;2024-02-23T05:34:08;0.35;;;0.35;;
56599;SDS011;51832;48.152;11.530;2024-02-23T05:39:08;0.73;;;0.68;;
56599;SDS011;51832;48.152;11.530;2024-02-23T05:44:09;0.50;;;0.50;;
56599;SDS011;51832;48.152;11.530;2024-02-23T05:49:10;1.15;;;0.65;;
56599;SDS011;51832;48.152;11.530;2024-02-23T05:54:11;0.38;;;0.38;;
56599;SDS011;51832;48.152;11.530;2024-02-23T05:59:11;0.50;;;0.50;;
56599;SDS011;51832;48.152;11.530;2024-02-23T06:04:11;2.15;;;0.60;;
56599;SDS011;51832;48.152;11.530;2024-02-23T06:09:12;0.50;;;0.50;;
56599;SDS011;51832;48.152;11.530;2024-02-23T06:14:13;0.40;;;0.40;;
56599;SDS011;51832;48.152;11.530;2024-02-23T06:19:13;1.33;;;0.60;;
56599;SDS011;51832;48.152;11.530;2024-02-23T06:24:14;0.50;;;0.45;;
56599;SDS011;51832;48.152;11.530;2024-02-23T06:29:15;0.32;;;0.30;;
56599;SDS011;51832;48.152;11.530;2024-02-23T06:34:15;0.77;;;0.45;;
56599;SDS011;51832;48.152;11.530;2024-02-23T06:39:16;0.45;;;0.40;;
56599;SDS011;51832;48.152;11.530;2024-02-23T06:44:18;0.50;;;0.40;;
56599;SDS011;51832;48.152;11.530;2024-02-23T06:49:18;0.80;;;0.45;;
56599;SDS011;51832;48.152;11.530;2024-02-23T06:54:19;1.52;;;0.65;;
56599;SDS011;51832;48.152;11.530;2024-02-23T06:59:19;0.30;;;0.30;;
56599;SDS011;51832;48.152;11.530;2024-02-23T07:04:20;0.90;;;0.70;;
56599;SDS011;51832;48.152;11.530;2024-02-23T07:09:20;0.40;;;0.30;;
56599;SDS011;51832;48.152;11.530;2024-02-23T07:14:21;0.73;;;0.57;;
56599;SDS011;51832;48.152;11.530;2024-02-23T07:19:22;3.00;;;0.52;;
56599;SDS011;51832;48.152;11.530;2024-02-23T07:24:22;0.32;;;0.32;;
56599;SDS011;51832;48.152;11.530;2024-02-23T07:29:23;0.88;;;0.60;;
56599;SDS011;51832;48.152;11.530;2024-02-23T07:34:23;1.00;;;0.70;;
56599;SDS011;51832;48.152;11.530;2024-02-23T07:39:23;1.27;;;0.60;;
56599;SDS011;51832;48.152;11.530;2024-02-23T07:44:24;1.40;;;0.50;;
56599;SDS011;51832;48.152;11.530;2024-02-23T07:49:25;0.82;;;0.80;;
56599;SDS011;51832;48.152;11.530;2024-02-23T07:54:28;0.82;;;0.50;;
56599;SDS011;51832;48.152;11.530;2024-02-23T07:59:29;0.38;;;0.38;;
56599;SDS011;51832;48.152;11.530;2024-02-23T08:04:29;1.50;;;0.50;;
56599;SDS011;51832;48.152;11.530;2024-02-23T08:09:30;0.95;;;0.60;;
56599;SDS011;51832;48.152;11.530;2024-02-23T08:14:30;0.85;;;0.50;;
56599;SDS011;51832;48.152;11.530;2024-02-23T08:19:30;1.20;;;0.57;;
56599;SDS011;51832;48.152;11.530;2024-02-23T08:24:31;1.17;;;0.60;;
56599;SDS011;51832;48.152;11.530;2024-02-23T08:29:31;1.05;;;0.57;;
56599;SDS011;51832;48.152;11.530;2024-02-23T08:34:32;0.95;;;0.52;;
56599;SDS011;51832;48.152;11.530;2024-02-23T08:39:34;1.63;;;0.60;;
56599;SDS011;51832;48.152;11.530;2024-02-23T08:44:37;1.83;;;0.52;;
56599;SDS011;51832;48.152;11.530;2024-02-23T08:49:39;1.40;;;0.60;;
56599;SDS011;51832;48.152;11.530;2024-02-23T08:54:39;0.88;;;0.40;;
56599;SDS011;51832;48.152;11.530;2024-02-23T08:59:40;1.63;;;0.70;;
56599;SDS011;51832;48.152;11.530;2024-02-23T09:04:40;1.55;;;0.70;;
56599;SDS011;51832;48.152;11.530;2024-02-23T09:09:41;2.25;;;0.60;;
56599;SDS011;51832;48.152;11.530;2024-02-23T09:14:44;1.00;;;0.55;;
56599;SDS011;51832;48.152;11.530;2024-02-23T09:19:45;2.75;;;0.70;;
56599;SDS011;51832;48.152;11.530;2024-02-23T09:24:45;3.60;;;0.85;;
56599;SDS011;51832;48.152;11.530;2024-02-23T09:29:46;0.60;;;0.50;;
56599;SDS011;51832;48.152;11.530;2024-02-23T09:34:46;1.67;;;0.70;;
56599;SDS011;51832;48.152;11.530;2024-02-23T09:39:47;0.85;;;0.52;;
56599;SDS011;51832;48.152;11.530;2024-02-23T09:44:47;1.95;;;1.00;;
56599;SDS011;51832;48.152;11.530;2024-02-23T09:49:57;1.20;;;0.50;;
56599;SDS011;51832;48.152;11.530;2024-02-23T09:55:00;0.55;;;0.50;;
56599;SDS011;51832;48.152;11.530;2024-02-23T10:00:03;1.23;;;0.70;;
56599;SDS011;51832;48.152;11.530;2024-02-23T10:05:06;1.00;;;0.70;;
56599;SDS011;51832;48.152;11.530;2024-02-23T10:10:10;1.75;;;0.63;;
56599;SDS011;51832;48.152;11.530;2024-02-23T10:15:11;1.75;;;0.50;;
56599;SDS011;51832;48.152;11.530;2024-02-23T10:20:11;1.08;;;0.35;;
56599;SDS011;51832;48.152;11.530;2024-02-23T10:25:12;0.40;;;0.40;;
56599;SDS011;51832;48.152;11.530;2024-02-23T10:30:13;0.77;;;0.60;;
56599;SDS011;51832;48.152;11.530;2024-02-23T10:35:15;0.73;;;0.50;;
56599;SDS011;51832;48.152;11.530;2024-02-23T10:40:20;0.90;;;0.50;;
56599;SDS011;51832;48.152;11.530;2024-02-23T10:45:22;1.25;;;0.60;;
56599;SDS011;51832;48.152;11.530;2024-02-23T10:50:23;0.63;;;0.60;;
56599;SDS011;51832;48.152;11.530;2024-02-23T10:55:25;0.40;;;0.40;;
56599;SDS011;51832;48.152;11.530;2024-02-23T11:05:29;0.73;;;0.70;;
56599;SDS011;51832;48.152;11.530;2024-02-23T11:10:30;2.03;;;0.70;;
56599;SDS011;51832;48.152;11.530;2024-02-23T11:15:30;1.13;;;0.40;;
56599;SDS011;51832;48.152;11.530;2024-02-23T11:20:34;1.65;;;0.60;;
56599;SDS011;51832;48.152;11.530;2024-02-23T11:25:35;0.68;;;0.50;;
56599;SDS011;51832;48.152;11.530;2024-02-23T11:30:35;0.90;;;0.40;;
56599;SDS011;51832;48.152;11.530;2024-02-23T11:35:36;0.85;;;0.50;;
56599;SDS011;51832;48.152;11.530;2024-02-23T11:40:49;0.75;;;0.50;;
56599;SDS011;51832;48.152;11.530;2024-02-23T11:45:52;2.03;;;0.73;;
56599;SDS011;51832;48.152;11.530;2024-02-23T11:50:53;0.50;;;0.50;;
56599;SDS011;51832;48.152;11.530;2024-02-23T11:55:53;0.85;;;0.60;;
56599;SDS011;51832;48.152;11.530;2024-02-23T12:00:54;0.40;;;0.40;;
56599;SDS011;51832;48.152;11.530;2024-02-23T12:05:55;0.82;;;0.73;;
56599;SDS011;51832;48.152;11.530;2024-02-23T12:10:58;2.35;;;0.50;;
56599;SDS011;51832;48.152;11.530;2024-02-23T12:16:00;1.02;;;0.38;;
56599;SDS011;51832;48.152;11.530;2024-02-23T12:21:01;1.02;;;0.40;;
56599;SDS011;51832;48.152;11.530;2024-02-23T12:26:09;1.27;;;0.45;;
56599;SDS011;51832;48.152;11.530;2024-02-23T12:31:10;0.98;;;0.40;;
56599;SDS011;51832;48.152;11.530;2024-02-23T12:36:10;0.68;;;0.40;;
56599;SDS011;51832;48.152;11.530;2024-02-23T12:41:11;1.80;;;0.60;;
56599;SDS011;51832;48.152;11.530;2024-02-23T12:46:11;0.50;;;0.50;;
56599;SDS011;51832;48.152;11.530;2024-02-23T12:51:14;2.35;;;0.82;;
56599;SDS011;51832;48.152;11.530;2024-02-23T12:56:14;0.40;;;0.40;;
56599;SDS011;51832;48.152;11.530;2024-02-23T13:01:16;1.23;;;0.35;;
56599;SDS011;51832;48.152;11.530;2024-02-23T13:06:16;0.28;;;0.28;;
56599;SDS011;51832;48.152;11.530;2024-02-23T13:11:17;1.00;;;0.40;;
56599;SDS011;51832;48.152;11.530;2024-02-23T13:16:17;0.98;;;0.40;;
56599;SDS011;51832;48.152;11.530;2024-02-23T13:21:18;0.50;;;0.50;;
56599;SDS011;51832;48.152;11.530;2024-02-23T13:26:18;1.25;;;0.40;;
56599;SDS011;51832;48.152;11.530;2024-02-23T13:31:19;0.65;;;0.20;;
56599;SDS011;51832;48.152;11.530;2024-02-23T13:36:20;0.43;;;0.30;;
56599;SDS011;51832;48.152;11.530;2024-02-23T13:41:20;0.35;;;0.32;;
56599;SDS011;51832;48.152;11.530;2024-02-23T13:46:21;0.47;;;0.32;;
56599;SDS011;51832;48.152;11.530;2024-02-23T13:51:21;0.30;;;0.30;;
56599;SDS011;51832;48.152;11.530;2024-02-23T13:56:22;0.47;;;0.28;;
56599;SDS011;51832;48.152;11.530;2024-02-23T14:01:22;0.30;;;0.30;;
56599;SDS011;51832;48.152;11.530;2024-02-23T14:06:23;0.60;;;0.60;;
56599;SDS011;51832;48.152;11.530;2024-02-23T14:11:23;0.80;;;0.47;;
56599;SDS011;51832;48.152;11.530;2024-02-23T14:16:24;0.52;;;0.32;;
56599;SDS011;51832;48.152;11.530;2024-02-23T14:21:25;0.60;;;0.50;;
56599;SDS011;51832;48.152;11.530;2024-02-23T14:26:25;0.43;;;0.40;;
56599;SDS011;51832;48.152;11.530;2024-02-23T14:31:26;3.08;;;0.50;;
56599;SDS011;51832;48.152;11.530;2024-02-23T14:36:26;0.40;;;0.40;;
56599;SDS011;51832;48.152;11.530;2024-02-23T14:41:27;1.10;;;0.60;;
56599;SDS011;51832;48.152;11.530;2024-02-23T14:46:27;0.98;;;0.55;;
56599;SDS011;51832;48.152;11.530;2024-02-23T14:51:28;0.30;;;0.30;;
56599;SDS011;51832;48.152;11.530;2024-02-23T14:56:29;1.30;;;0.30;;
56599;SDS011;51832;48.152;11.530;2024-02-23T15:01:29;2.28;;;0.75;;
56599;SDS011;51832;48.152;11.530;2024-02-23T15:06:30;0.63;;;0.52;;
56599;SDS011;51832;48.152;11.530;2024-02-23T15:11:31;0.80;;;0.50;;
56599;SDS011;51832;48.152;11.530;2024-02-23T15:16:32;0.43;;;0.40;;
56599;SDS011;51832;48.152;11.530;2024-02-23T15:21:32;0.60;;;0.30;;
56599;SDS011;51832;48.152;11.530;2024-02-23T15:26:35;0.40;;;0.40;;
56599;SDS011;51832;48.152;11.530;2024-02-23T15:31:35;1.45;;;0.40;;
56599;SDS011;51832;48.152;11.530;2024-02-23T15:36:37;0.70;;;0.50;;
56599;SDS011;51832;48.152;11.530;2024-02-23T15:41:38;0.40;;;0.40;;
56599;SDS011;51832;48.152;11.530;2024-02-23T15:46:38;1.60;;;0.50;;
56599;SDS011;51832;48.152;11.530;2024-02-23T15:51:39;0.85;;;0.60;;
56599;SDS011;51832;48.152;11.530;2024-02-23T15:56:39;0.43;;;0.40;;
56599;SDS011;51832;48.152;11.530;2024-02-23T16:01:40;0.93;;;0.57;;
56599;SDS011;51832;48.152;11.530;2024-02-23T16:06:40;2.55;;;0.90;;
56599;SDS011;51832;48.152;11.530;2024-02-23T16:11:44;1.15;;;0.60;;
56599;SDS011;51832;48.152;11.530;2024-02-23T16:16:48;1.08;;;0.60;;
56599;SDS011;51832;48.152;11.530;2024-02-23T16:21:50;0.80;;;0.60;;
56599;SDS011;51832;48.152;11.530;2024-02-23T16:26:50;0.60;;;0.60;;
56599;SDS011;51832;48.152;11.530;2024-02-23T16:31:51;0.85;;;0.63;;
56599;SDS011;51832;48.152;11.530;2024-02-23T16:36:51;0.47;;;0.40;;
56599;SDS011;51832;48.152;11.530;2024-02-23T16:41:52;0.88;;;0.55;;
56599;SDS011;51832;48.152;11.530;2024-02-23T16:46:52;0.40;;;0.40;;
56599;SDS011;51832;48.152;11.530;2024-02-23T16:51:53;0.95;;;0.45;;
56599;SDS011;51832;48.152;11.530;2024-02-23T16:56:53;0.82;;;0.50;;
56599;SDS011;51832;48.152;11.530;2024-02-23T17:01:54;1.80;;;0.80;;
56599;SDS011;51832;48.152;11.530;2024-02-23T17:06:54;0.73;;;0.50;;
56599;SDS011;51832;48.152;11.530;2024-02-23T17:11:57;0.60;;;0.57;;
56599;SDS011;51832;48.152;11.530;2024-02-23T17:16:57;0.52;;;0.40;;
56599;SDS011;51832;48.152;11.530;2024-02-23T17:21:58;0.55;;;0.40;;
56599;SDS011;51832;48.152;11.530;2024-02-23T17:26:58;0.90;;;0.50;;
56599;SDS011;51832;48.152;11.530;2024-02-23T17:31:59;1.23;;;0.40;;
56599;SDS011;51832;48.152;11.530;2024-02-23T17:37:00;0.60;;;0.40;;
56599;SDS011;51832;48.152;11.530;2024-02-23T17:42:00;0.90;;;0.68;;
56599;SDS011;51832;48.152;11.530;2024-02-23T17:47:02;1.00;;;0.90;;
56599;SDS011;51832;48.152;11.530;2024-02-23T17:52:03;1.33;;;0.85;;
56599;SDS011;51832;48.152;11.530;2024-02-23T17:57:04;3.13;;;1.27;;
56599;SDS011;51832;48.152;11.530;2024-02-23T18:02:04;2.83;;;1.10;;
56599;SDS011;51832;48.152;11.530;2024-02-23T18:07:05;2.70;;;1.00;;
56599;SDS011;51832;48.152;11.530;2024-02-23T18:12:05;1.13;;;0.93;;
56599;SDS011;51832;48.152;11.530;2024-02-23T18:17:06;1.05;;;0.90;;
56599;SDS011;51832;48.152;11.530;2024-02-23T18:22:07;2.45;;;1.60;;
56599;SDS011;51832;48.152;11.530;2024-02-23T18:27:08;2.53;;;1.30;;
56599;SDS011;51832;48.152;11.530;2024-02-23T18:32:09;2.65;;;1.40;;
56599;SDS011;51832;48.152;11.530;2024-02-23T18:37:11;1.48;;;0.80;;
56599;SDS011;51832;48.152;11.530;2024-02-23T18:42:12;1.90;;;1.02;;
56599;SDS011;51832;48.152;11.530;2024-02-23T18:47:13;2.10;;;1.42;;
56599;SDS011;51832;48.152;11.530;2024-02-23T18:52:13;1.20;;;1.10;;
56599;SDS011;51832;48.152;11.530;2024-02-23T18:57:14;2.88;;;1.20;;
56599;SDS011;51832;48.152;11.530;2024-02-23T19:02:15;2.35;;;1.20;;
56599;SDS011;51832;48.152;11.530;2024-02-23T19:07:16;1.88;;;1.10;;
56599;SDS011;51832;48.152;11.530;2024-02-23T19:12:17;1.75;;;1.00;;
56599;SDS011;51832;48.152;11.530;2024-02-23T19:17:17;1.95;;;1.30;;
56599;SDS011;51832;48.152;11.530;2024-02-23T19:22:18;1.40;;;1.10;;
56599;SDS011;51832;48.152;11.530;2024-02-23T19:27:18;2.60;;;1.63;;
56599;SDS011;51832;48.152;11.530;2024-02-23T19:32:21;2.58;;;1.48;;
56599;SDS011;51832;48.152;11.530;2024-02-23T19:37:21;2.35;;;1.17;;
56599;SDS011;51832;48.152;11.530;2024-02-23T19:42:24;2.63;;;1.40;;
56599;SDS011;51832;48.152;11.530;2024-02-23T19:47:24;2.15;;;1.35;;
56599;SDS011;51832;48.152;11.530;2024-02-23T19:52:25;1.52;;;1.33;;
56599;SDS011;51832;48.152;11.530;2024-02-23T19:57:28;2.28;;;1.40;;
56599;SDS011;51832;48.152;11.530;2024-02-23T20:02:29;1.40;;;1.08;;
56599;SDS011;51832;48.152;11.530;2024-02-23T20:07:29;1.67;;;1.30;;
56599;SDS011;51832;48.152;11.530;2024-02-23T20:12:30;2.97;;;1.40;;
56599;SDS011;51832;48.152;11.530;2024-02-23T20:17:30;3.13;;;1.73;;
56599;SDS011;51832;48.152;11.530;2024-02-23T20:22:31;3.42;;;1.70;;
56599;SDS011;51832;48.152;11.530;2024-02-23T20:27:31;2.15;;;1.50;;
56599;SDS011;51832;48.152;11.530;2024-02-23T20:32:31;2.58;;;1.60;;
56599;SDS011;51832;48.152;11.530;2024-02-23T20:37:32;2.30;;;1.90;;
56599;SDS011;51832;48.152;11.530;2024-02-23T20:42:34;3.55;;;2.70;;
56599;SDS011;51832;48.152;11.530;2024-02-23T20:47:34;4.03;;;2.20;;
56599;SDS011;51832;48.152;11.530;2024-02-23T20:52:35;3.65;;;2.40;;
56599;SDS011;51832;48.152;11.530;2024-02-23T20:57:35;4.70;;;2.08;;
56599;SDS011;51832;48.152;11.530;2024-02-23T21:02:36;4.32;;;2.15;;
56599;SDS011;51832;48.152;11.530;2024-02-23T21:07:38;4.95;;;2.28;;
56599;SDS011;51832;48.152;11.530;2024-02-23T21:12:38;3.10;;;2.00;;
56599;SDS011;51832;48.152;11.530;2024-02-23T21:17:39;2.80;;;2.22;;
56599;SDS011;51832;48.152;11.530;2024-02-23T21:22:40;2.92;;;1.63;;
56599;SDS011;51832;48.152;11.530;2024-02-23T21:27:40;3.67;;;2.15;;
56599;SDS011;51832;48.152;11.530;2024-02-23T21:32:41;2.03;;;1.83;;
56599;SDS011;51832;48.152;11.530;2024-02-23T21:37:41;2.75;;;1.83;;
56599;SDS011;51832;48.152;11.530;2024-02-23T21:42:42;2.35;;;1.70;;
56599;SDS011;51832;48.152;11.530;2024-02-23T21:47:42;2.28;;;1.60;;
56599;SDS011;51832;48.152;11.530;2024-02-23T21:52:46;4.75;;;1.95;;
56599;SDS011;51832;48.152;11.530;2024-02-23T21:57:46;2.42;;;1.42;;
56599;SDS011;51832;48.152;11.530;2024-02-23T22:02:47;1.98;;;1.40;;
56599;SDS011;51832;48.152;11.530;2024-02-23T22:07:47;1.95;;;1.30;;
56599;SDS011;51832;48.152;11.530;2024-02-23T22:12:48;4.50;;;2.05;;
56599;SDS011;51832;48.152;11.530;2024-02-23T22:17:48;2.15;;;1.48;;
56599;SDS011;51832;48.152;11.530;2024-02-23T22:22:49;1.48;;;1.30;;
56599;SDS011;51832;48.152;11.530;2024-02-23T22:27:49;1.70;;;1.15;;
56599;SDS011;51832;48.152;11.530;2024-02-23T22:32:50;1.55;;;1.10;;
56599;SDS011;51832;48.152;11.530;2024-02-23T22:37:50;1.85;;;1.17;;
56599;SDS011;51832;48.152;11.530;2024-02-23T22:42:51;1.98;;;1.20;;
56599;SDS011;51832;48.152;11.530;2024-02-23T22:47:51;1.65;;;1.08;;
56599;SDS011;51832;48.152;11.530;2024-02-23T22:52:52;2.40;;;1.40;;
56599;SDS011;51832;48.152;11.530;2024-02-23T22:57:52;1.85;;;1.27;;
56599;SDS011;51832;48.152;11.530;2024-02-23T23:02:52;2.78;;;1.27;;
56599;SDS011;51832;48.152;11.530;2024-02-23T23:07:53;2.72;;;1.00;;
56599;SDS011;51832;48.152;11.530;2024-02-23T23:12:54;2.92;;;1.10;;
56599;SDS011;51832;48.152;11.530;2024-02-23T23:17:54;1.17;;;0.82;;
56599;SDS011;51832;48.152;11.530;2024-02-23T23:22:55;1.85;;;1.10;;
56599;SDS011;51832;48.152;11.530;2024-02-23T23:27:56;1.05;;;0.80;;
56599;SDS011;51832;48.152;11.530;2024-02-23T23:32:56;2.88;;;1.70;;
56599;SDS011;51832;48.152;11.530;2024-02-23T23:37:57;4.30;;;2.75;;
56599;SDS011;51832;48.152;11.530;2024-02-23T23:42:57;2.95;;;1.30;;
56599;SDS011;51832;48.152;11.530;2024-02-23T23:47:58;2.70;;;1.10;;
56599;SDS011;51832;48.152;11.530;2024-02-23T23:52:58;2.50;;;1.30;;
56599;SDS011;51832;48.152;11.530;2024-02-23T23:57:58;1.67;;;1.27;;
